Time;durP1;ratioP1;P1;durP2;ratioP2;P2;SDS_P1;SDS_P2;PMS_P1;PMS_P2;Temp;Humidity;BMP_temperature;BMP_pressure;BME280_temperature;BME280_humidity;BME280_pressure;Samples;Min_cycle;Max_cycle;Signal;HPM_P1;HPM_P2
2022/05/22 00:00:19;;;;;;;12.73;6.43;;;11.70;99.90;;;;;;5095992;28;20054;-67
2022/05/22 00:02:46;;;;;;;14.27;6.70;;;11.70;99.90;;;;;;5088883;28;20044;-67
2022/05/22 00:05:16;;;;;;;14.80;6.72;;;11.70;99.90;;;;;;5090499;28;20039;-67
2022/05/22 00:07:42;;;;;;;12.90;6.22;;;11.70;99.90;;;;;;5102171;28;20043;-67
2022/05/22 00:10:08;;;;;;;12.93;6.32;;;11.70;99.90;;;;;;5088204;28;20063;-67
2022/05/22 00:12:34;;;;;;;10.45;5.03;;;11.70;99.90;;;;;;5090619;28;20038;-68
2022/05/22 00:15:00;;;;;;;10.40;5.47;;;11.60;99.90;;;;;;5089592;28;20044;-67
2022/05/22 00:17:25;;;;;;;9.88;5.22;;;11.60;99.90;;;;;;5087133;28;20067;-67
2022/05/22 00:19:51;;;;;;;10.73;5.30;;;11.50;99.90;;;;;;5094075;28;20494;-68
2022/05/22 00:22:17;;;;;;;10.82;5.50;;;11.50;99.90;;;;;;5110477;28;20051;-67
2022/05/22 00:24:43;;;;;;;9.13;5.18;;;11.50;99.90;;;;;;5096251;28;20089;-67
2022/05/22 00:27:09;;;;;;;12.27;6.13;;;11.50;99.90;;;;;;5088350;28;20068;-67
2022/05/22 00:29:36;;;;;;;14.50;6.15;;;11.50;99.90;;;;;;5089350;28;20055;-67
2022/05/22 00:32:03;;;;;;;10.45;5.90;;;11.50;99.90;;;;;;5088591;28;20039;-67
2022/05/22 00:34:28;;;;;;;13.98;5.60;;;11.50;99.90;;;;;;5089952;28;20052;-67
2022/05/22 00:36:54;;;;;;;11.32;5.22;;;11.50;99.90;;;;;;5092356;28;20495;-68
2022/05/22 00:39:20;;;;;;;13.30;5.63;;;11.50;99.90;;;;;;5098496;28;20093;-67
2022/05/22 00:41:51;;;;;;;12.63;5.75;;;11.40;99.90;;;;;;5089469;28;20051;-67
2022/05/22 00:44:17;;;;;;;15.35;6.20;;;11.40;99.90;;;;;;5089024;28;20078;-68
2022/05/22 00:46:42;;;;;;;11.13;4.97;;;11.40;99.90;;;;;;5087117;28;20044;-67
2022/05/22 00:49:27;;;;;;;11.88;5.57;;;11.40;99.90;;;;;;5102923;28;20092;-67
2022/05/22 00:52:00;;;;;;;11.80;5.60;;;11.30;99.90;;;;;;5090160;28;20443;-67
2022/05/22 00:54:34;;;;;;;12.23;5.80;;;11.30;99.90;;;;;;5088438;28;20058;-67
2022/05/22 00:57:18;;;;;;;9.93;5.40;;;11.30;99.90;;;;;;5070370;28;20075;-68
2022/05/22 00:59:54;;;;;;;14.85;5.97;;;11.30;99.90;;;;;;5071947;28;20098;-68
2022/05/22 01:02:20;;;;;;;12.05;6.03;;;11.20;99.90;;;;;;5089544;28;20047;-67
2022/05/22 01:04:49;;;;;;;11.43;6.38;;;11.20;99.90;;;;;;5091488;28;20066;-67
2022/05/22 01:07:15;;;;;;;10.80;5.65;;;11.10;99.90;;;;;;5090464;28;20398;-68
2022/05/22 01:09:41;;;;;;;10.63;6.20;;;11.10;99.90;;;;;;5088169;28;20492;-67
2022/05/22 01:12:17;;;;;;;10.45;6.18;;;11.10;99.90;;;;;;5086826;28;20047;-68
2022/05/22 01:14:47;;;;;;;9.27;5.13;;;11.10;99.90;;;;;;5089324;28;20083;-67
2022/05/22 01:17:14;;;;;;;12.70;5.18;;;11.10;99.90;;;;;;5088204;28;20043;-67
2022/05/22 01:19:39;;;;;;;9.87;5.10;;;11.00;99.90;;;;;;5087514;28;20119;-67
2022/05/22 01:22:14;;;;;;;12.23;5.32;;;10.90;99.90;;;;;;5087785;28;20135;-67
2022/05/22 01:24:40;;;;;;;12.25;7.03;;;10.90;99.90;;;;;;5088286;28;20547;-67
2022/05/22 01:27:11;;;;;;;12.25;6.47;;;10.90;99.90;;;;;;5086587;28;20403;-67
2022/05/22 01:29:37;;;;;;;9.45;5.72;;;10.90;99.90;;;;;;5085942;28;20051;-67
2022/05/22 01:32:04;;;;;;;11.50;6.10;;;10.90;99.90;;;;;;5093666;28;20046;-67
2022/05/22 01:34:30;;;;;;;;;;;10.90;99.90;;;;;;5109385;28;20039;-67
2022/05/22 01:36:55;;;;;;;10.27;6.38;;;10.80;99.90;;;;;;5089816;28;19945;-67
2022/05/22 01:39:21;;;;;;;9.43;5.45;;;10.80;99.90;;;;;;5086223;28;20036;-67
2022/05/22 01:41:47;;;;;;;10.95;6.32;;;10.80;99.90;;;;;;5085762;28;20545;-67
2022/05/22 01:44:15;;;;;;;11.20;6.32;;;10.70;99.90;;;;;;5085269;28;20043;-67
2022/05/22 01:46:41;;;;;;;14.25;7.78;;;10.70;99.90;;;;;;5088370;28;20047;-67
2022/05/22 01:49:07;;;;;;;11.07;7.40;;;10.70;99.90;;;;;;5089335;28;20065;-67
2022/05/22 01:51:36;;;;;;;10.60;7.63;;;10.70;99.90;;;;;;5100263;28;20055;-67
2022/05/22 01:54:03;;;;;;;9.45;6.47;;;10.70;99.90;;;;;;5090590;28;20313;-67
2022/05/22 01:56:30;;;;;;;10.55;6.57;;;10.70;99.90;;;;;;5088686;28;20044;-67
2022/05/22 01:58:56;;;;;;;8.50;6.53;;;10.70;99.90;;;;;;5085326;28;20055;-67
2022/05/22 02:01:22;;;;;;;9.52;5.82;;;10.70;99.90;;;;;;5093946;28;20039;-67
2022/05/22 02:03:47;;;;;;;8.52;5.03;;;10.60;99.90;;;;;;5095445;28;20395;-67
2022/05/22 02:06:15;;;;;;;6.50;4.78;;;10.60;99.90;;;;;;5088322;28;20063;-67
2022/05/22 02:08:42;;;;;;;6.32;4.72;;;10.50;99.90;;;;;;5083424;28;20536;-67
2022/05/22 02:11:08;;;;;;;6.45;4.90;;;10.50;99.90;;;;;;5096310;28;20067;-67
2022/05/22 02:13:37;;;;;;;6.13;5.00;;;10.40;99.90;;;;;;5095291;28;20972;-67
2022/05/22 02:16:03;;;;;;;7.53;5.35;;;10.50;99.90;;;;;;5088192;28;20036;-67
2022/05/22 02:18:29;;;;;;;9.25;5.88;;;10.40;99.90;;;;;;5086755;28;20047;-67
2022/05/22 02:20:56;;;;;;;10.27;6.53;;;10.50;99.90;;;;;;5088164;28;21060;-67
2022/05/22 02:23:21;;;;;;;9.02;5.70;;;10.40;99.90;;;;;;5087946;28;20164;-67
2022/05/22 02:25:51;;;;;;;11.48;6.70;;;10.40;99.90;;;;;;5089522;28;20199;-67
2022/05/22 02:28:18;;;;;;;10.98;6.57;;;10.40;99.90;;;;;;5087807;28;20036;-67
2022/05/22 02:30:50;;;;;;;10.32;6.50;;;10.40;99.90;;;;;;5087301;28;20092;-67
2022/05/22 02:33:17;;;;;;;9.05;6.28;;;10.40;99.90;;;;;;5091264;28;20048;-67
2022/05/22 02:35:42;;;;;;;9.65;6.63;;;10.40;99.90;;;;;;5089840;28;20149;-67
2022/05/22 02:38:08;;;;;;;10.27;6.95;;;10.40;99.90;;;;;;5089213;28;20056;-66
2022/05/22 02:40:34;;;;;;;9.68;6.57;;;10.40;99.90;;;;;;5107138;28;20040;-67
2022/05/22 02:43:00;;;;;;;12.27;6.88;;;10.40;99.90;;;;;;5094875;28;20064;-67
2022/05/22 02:45:31;;;;;;;8.52;6.03;;;10.40;99.90;;;;;;5087338;28;20048;-67
2022/05/22 02:47:57;;;;;;;11.20;5.97;;;10.40;99.90;;;;;;5088601;28;20451;-67
2022/05/22 02:50:24;;;;;;;7.80;5.70;;;10.40;99.90;;;;;;5094206;28;20483;-67
2022/05/22 02:52:50;;;;;;;8.25;5.43;;;10.40;99.90;;;;;;5096711;28;20596;-67
2022/05/22 02:55:18;;;;;;;9.25;6.70;;;10.40;99.90;;;;;;5087636;28;20087;-67
2022/05/22 02:57:44;;;;;;;8.55;6.30;;;10.40;99.90;;;;;;5088338;28;20043;-67
2022/05/22 03:00:17;;;;;;;11.38;6.32;;;10.30;99.90;;;;;;5092062;28;20166;-67
2022/05/22 03:02:44;;;;;;;9.27;6.90;;;10.30;99.90;;;;;;5092463;28;20056;-67
2022/05/22 03:05:10;;;;;;;10.07;6.60;;;10.20;99.90;;;;;;5111309;28;20139;-67
2022/05/22 03:07:36;;;;;;;10.15;6.93;;;10.20;99.90;;;;;;5113380;28;20096;-67
2022/05/22 03:10:04;;;;;;;9.25;6.20;;;10.20;99.90;;;;;;5093394;28;20039;-67
2022/05/22 03:12:29;;;;;;;8.10;5.90;;;10.10;99.90;;;;;;5090134;28;20518;-67
2022/05/22 03:14:57;;;;;;;9.20;5.85;;;10.00;99.90;;;;;;5092507;28;20040;-67
2022/05/22 03:17:24;;;;;;;11.32;6.50;;;10.00;99.90;;;;;;5105374;28;20057;-67
2022/05/22 03:19:50;;;;;;;9.00;6.15;;;9.90;99.90;;;;;;5086932;28;20495;-67
2022/05/22 03:22:16;;;;;;;9.13;6.63;;;9.80;99.90;;;;;;5097906;28;20090;-67
2022/05/22 03:24:42;;;;;;;8.97;5.87;;;9.90;99.90;;;;;;5106858;28;20048;-67
2022/05/22 03:27:13;;;;;;;9.07;5.78;;;9.80;99.90;;;;;;5106928;28;20044;-67
2022/05/22 03:29:40;;;;;;;10.10;5.68;;;9.90;99.90;;;;;;5090168;28;20083;-67
2022/05/22 03:32:07;;;;;;;9.05;6.32;;;9.90;99.90;;;;;;5106002;28;20088;-67
2022/05/22 03:34:33;;;;;;;12.90;6.32;;;9.90;99.90;;;;;;5112101;28;20097;-67
2022/05/22 03:36:59;;;;;;;10.70;6.53;;;9.90;99.90;;;;;;5109566;28;20039;-67
2022/05/22 03:39:25;;;;;;;8.15;6.38;;;9.90;99.90;;;;;;5086334;28;20048;-67
2022/05/22 03:41:51;;;;;;;8.70;6.60;;;9.90;99.90;;;;;;5091649;28;20047;-67
2022/05/22 03:44:16;;;;;;;9.25;6.57;;;9.80;99.90;;;;;;5091494;28;20171;-67
2022/05/22 03:46:44;;;;;;;8.20;5.80;;;9.80;99.90;;;;;;5100554;28;20392;-67
2022/05/22 03:49:10;;;;;;;;;;;9.80;99.90;;;;;;5089676;28;20052;-67
2022/05/22 03:51:35;;;;;;;8.98;6.43;;;9.80;99.90;;;;;;5090632;28;19946;-67
2022/05/22 03:54:01;;;;;;;9.70;6.38;;;9.80;99.90;;;;;;5091120;28;20056;-67
2022/05/22 03:56:27;;;;;;;8.07;6.05;;;9.80;99.90;;;;;;5090195;28;20059;-67
2022/05/22 03:58:52;;;;;;;10.02;6.47;;;9.80;99.90;;;;;;5087621;28;20453;-67
2022/05/22 04:01:18;;;;;;;10.23;7.50;;;9.80;99.90;;;;;;5090973;28;20071;-66
2022/05/22 04:03:44;;;;;;;9.70;7.90;;;9.80;99.90;;;;;;5088664;28;20459;-67
2022/05/22 04:06:11;;;;;;;9.73;7.95;;;9.90;99.90;;;;;;5090651;28;20070;-67
2022/05/22 04:08:38;;;;;;;12.80;8.55;;;10.00;99.90;;;;;;5090108;28;20391;-67
2022/05/22 04:11:08;;;;;;;10.55;8.30;;;10.00;99.90;;;;;;5104270;28;20062;-67
2022/05/22 04:13:34;;;;;;;12.15;8.68;;;10.00;99.90;;;;;;5095950;28;20082;-67
2022/05/22 04:15:59;;;;;;;12.85;9.00;;;10.10;99.90;;;;;;5096391;28;20036;-67
2022/05/22 04:18:25;;;;;;;11.05;8.35;;;10.10;99.90;;;;;;5088260;28;20289;-67
2022/05/22 04:20:51;;;;;;;11.23;7.93;;;10.10;99.90;;;;;;5091816;28;20491;-67
2022/05/22 04:26:02;;;;;;;9.98;7.30;;;10.20;99.90;;;;;;5090524;28;20491;-67
2022/05/22 04:28:28;;;;;;;11.55;7.82;;;10.30;99.90;;;;;;5091331;28;20093;-67
2022/05/22 04:30:55;;;;;;;9.52;7.43;;;10.30;99.90;;;;;;5086381;28;20047;-67
2022/05/22 04:33:20;;;;;;;9.57;7.65;;;10.30;99.90;;;;;;5093835;28;20396;-67
2022/05/22 04:35:47;;;;;;;11.65;8.60;;;10.40;99.90;;;;;;5090435;28;20058;-66
2022/05/22 04:38:13;;;;;;;12.40;8.70;;;10.50;99.90;;;;;;5111560;28;20060;-67
2022/05/22 04:40:40;;;;;;;10.57;8.38;;;10.50;99.90;;;;;;5095800;28;20497;-67
2022/05/22 04:43:06;;;;;;;13.60;10.30;;;10.60;99.90;;;;;;5094335;28;20036;-67
2022/05/22 04:45:32;;;;;;;17.27;13.43;;;10.70;99.90;;;;;;5109495;28;20047;-67
2022/05/22 04:47:58;;;;;;;18.95;14.02;;;10.80;99.90;;;;;;5087041;28;20044;-67
2022/05/22 04:50:25;;;;;;;19.08;14.27;;;10.90;99.90;;;;;;5088221;28;20376;-66
2022/05/22 04:52:50;;;;;;;17.73;14.95;;;10.90;99.90;;;;;;5089367;28;20109;-67
2022/05/22 04:55:16;;;;;;;17.50;15.57;;;11.00;99.90;;;;;;5090454;28;20798;-67
2022/05/22 04:57:43;;;;;;;19.65;16.95;;;11.10;99.90;;;;;;5089529;28;20043;-67
2022/05/22 05:00:10;;;;;;;20.67;18.52;;;11.10;99.90;;;;;;5088634;28;20130;-67
2022/05/22 05:02:37;;;;;;;21.48;19.38;;;11.20;99.90;;;;;;5088211;28;20044;-67
2022/05/22 05:05:05;;;;;;;20.60;17.37;;;11.30;99.90;;;;;;5101666;28;20039;-67
2022/05/22 05:07:31;;;;;;;18.73;15.45;;;11.30;99.90;;;;;;5092835;28;20052;-67
2022/05/22 05:09:57;;;;;;;21.17;15.98;;;11.40;99.90;;;;;;5088735;28;20044;-67
2022/05/22 05:12:23;;;;;;;18.83;15.20;;;11.50;99.90;;;;;;5087617;28;20097;-67
2022/05/22 05:14:49;;;;;;;17.83;13.65;;;11.60;99.90;;;;;;5097536;28;20088;-67
2022/05/22 05:17:17;;;;;;;20.73;16.00;;;11.60;99.90;;;;;;5090781;28;20076;-67
2022/05/22 05:19:43;;;;;;;20.15;16.15;;;11.70;99.90;;;;;;5080279;28;20517;-67
2022/05/22 05:22:09;;;;;;;23.42;17.10;;;11.80;99.90;;;;;;5088124;28;20127;-67
2022/05/22 05:24:34;;;;;;;19.45;17.23;;;11.90;99.90;;;;;;5088121;28;20047;-67
2022/05/22 05:27:01;;;;;;;19.95;17.85;;;12.00;99.90;;;;;;5089491;28;20079;-67
2022/05/22 05:29:27;;;;;;;24.17;20.98;;;12.10;99.90;;;;;;5087601;28;20122;-67
2022/05/22 05:31:52;;;;;;;27.13;22.27;;;12.20;99.90;;;;;;5091628;28;20122;-67
2022/05/22 05:34:18;;;;;;;24.98;22.38;;;12.20;99.90;;;;;;5108912;28;20653;-67
2022/05/22 05:36:45;;;;;;;25.58;21.38;;;12.30;99.90;;;;;;5088642;28;20072;-66
2022/05/22 05:39:11;;;;;;;27.38;24.65;;;12.30;99.90;;;;;;5088699;28;20086;-67
2022/05/22 05:41:37;;;;;;;27.35;24.45;;;12.50;99.90;;;;;;5087947;28;20040;-67
2022/05/22 05:44:07;;;;;;;24.75;22.17;;;12.50;99.90;;;;;;5088500;28;20423;-67
2022/05/22 05:46:37;;;;;;;23.45;21.00;;;12.60;99.90;;;;;;5085917;28;20051;-67
2022/05/22 05:49:05;;;;;;;22.48;17.73;;;12.70;99.90;;;;;;5089276;28;20051;-67
2022/05/22 05:51:30;;;;;;;;;;;12.80;99.90;;;;;;5083106;28;20071;-67
2022/05/22 05:53:56;;;;;;;21.70;15.52;;;12.80;99.90;;;;;;5101401;28;19931;-67
2022/05/22 05:56:21;;;;;;;21.67;15.35;;;12.80;99.90;;;;;;5102808;28;20539;-67
2022/05/22 05:58:48;;;;;;;17.15;14.68;;;12.80;99.90;;;;;;5087131;28;20046;-67
2022/05/22 06:01:16;;;;;;;20.52;14.48;;;12.90;99.90;;;;;;5082534;28;20444;-67
2022/05/22 06:03:41;;;;;;;;;;;12.90;99.90;;;;;;5097686;28;20053;-67
2022/05/22 06:06:08;;;;;;;21.02;12.10;;;13.00;99.90;;;;;;5095221;28;20050;-67
2022/05/22 06:08:34;;;;;;;20.20;13.20;;;13.10;99.90;;;;;;5089139;28;20089;-67
2022/05/22 06:11:00;;;;;;;17.95;12.98;;;13.20;99.90;;;;;;5088240;28;20036;-67
2022/05/22 06:13:25;;;;;;;18.67;12.30;;;13.30;99.90;;;;;;5084728;28;20032;-67
2022/05/22 06:15:52;;;;;;;21.48;12.38;;;13.40;99.90;;;;;;5087092;28;20479;-67
2022/05/22 06:18:19;;;;;;;16.25;10.00;;;13.50;99.90;;;;;;5086431;28;20123;-67
2022/05/22 06:20:44;;;;;;;15.68;9.70;;;13.50;99.90;;;;;;5082235;28;20395;-67
2022/05/22 06:23:10;;;;;;;17.02;9.68;;;13.60;99.90;;;;;;5103401;28;20036;-67
2022/05/22 06:25:35;;;;;;;17.30;9.38;;;13.70;99.90;;;;;;5089709;28;20040;-67
2022/05/22 06:28:01;;;;;;;21.48;8.95;;;13.80;99.90;;;;;;5086637;28;20044;-67
2022/05/22 06:30:27;;;;;;;17.95;9.00;;;13.90;99.90;;;;;;5102583;28;20051;-68
2022/05/22 06:32:53;;;;;;;18.52;8.70;;;14.00;99.90;;;;;;5087431;28;20036;-69
2022/05/22 06:35:20;;;;;;;16.13;8.35;;;14.00;99.90;;;;;;5084612;28;20100;-70
2022/05/22 06:37:46;;;;;;;20.98;7.50;;;14.10;99.90;;;;;;5085913;28;20055;-69
2022/05/22 06:40:12;;;;;;;16.27;6.95;;;14.20;99.90;;;;;;5090820;28;20044;-70
2022/05/22 06:42:43;;;;;;;16.27;7.15;;;14.30;99.90;;;;;;5082576;28;20699;-72
2022/05/22 06:45:13;;;;;;;16.30;6.97;;;14.40;99.90;;;;;;5098321;28;20047;-70
2022/05/22 06:47:41;;;;;;;15.75;7.10;;;14.40;99.90;;;;;;5095506;28;20395;-70
2022/05/22 06:50:10;;;;;;;15.50;7.45;;;14.50;99.90;;;;;;5088815;28;20044;-70
2022/05/22 06:52:36;;;;;;;16.35;6.82;;;14.60;99.90;;;;;;5089248;28;20047;-70
2022/05/22 06:55:03;;;;;;;16.92;7.00;;;14.70;99.90;;;;;;5088936;28;20487;-70
2022/05/22 06:57:29;;;;;;;18.08;6.13;;;14.70;99.90;;;;;;5102690;28;20051;-70
2022/05/22 06:59:56;;;;;;;19.15;5.57;;;14.80;99.90;;;;;;5095805;28;20036;-71
2022/05/22 07:02:23;;;;;;;18.50;6.35;;;14.90;99.90;;;;;;5095630;28;20047;-70
2022/05/22 07:04:49;;;;;;;14.35;5.85;;;14.90;99.90;;;;;;5090655;28;20044;-70
2022/05/22 07:07:14;;;;;;;15.80;5.80;;;15.00;99.90;;;;;;5105854;28;20051;-70
2022/05/22 07:09:40;;;;;;;14.40;5.80;;;15.10;99.90;;;;;;5101084;28;20024;-70
2022/05/22 07:12:10;;;;;;;15.45;6.00;;;15.10;99.90;;;;;;5086092;28;20541;-71
2022/05/22 07:14:36;;;;;;;13.45;5.10;;;15.20;99.90;;;;;;5095250;28;20058;-71
2022/05/22 07:17:03;;;;;;;11.43;5.13;;;15.20;99.90;;;;;;5109037;28;20047;-71
2022/05/22 07:19:29;;;;;;;13.00;5.60;;;15.30;99.90;;;;;;5105846;28;20047;-71
2022/05/22 07:21:55;;;;;;;11.98;5.22;;;15.30;99.90;;;;;;5094194;28;20044;-71
2022/05/22 07:24:20;;;;;;;13.85;4.65;;;15.40;99.90;;;;;;5081794;28;20094;-70
2022/05/22 07:26:46;;;;;;;12.85;4.40;;;15.50;99.90;;;;;;5121045;28;20391;-69
2022/05/22 07:29:12;;;;;;;14.27;5.07;;;15.60;99.90;;;;;;5089449;28;20044;-68
2022/05/22 07:31:40;;;;;;;14.68;5.15;;;15.70;99.90;;;;;;5091493;28;20056;-68
2022/05/22 07:34:05;;;;;;;14.52;4.88;;;15.80;99.90;;;;;;5098877;28;20039;-69
2022/05/22 07:36:31;;;;;;;13.18;5.30;;;15.90;99.90;;;;;;5088414;28;20456;-68
2022/05/22 07:38:57;;;;;;;11.27;4.65;;;15.90;99.90;;;;;;5086353;28;20048;-69
2022/05/22 07:41:22;;;;;;;13.93;4.63;;;16.00;99.90;;;;;;5095025;28;20054;-69
2022/05/22 07:43:48;;;;;;;15.23;5.90;;;16.10;99.90;;;;;;5107313;28;20510;-69
2022/05/22 07:46:14;;;;;;;14.10;5.00;;;16.20;99.90;;;;;;5093092;28;20036;-69
2022/05/22 07:48:41;;;;;;;13.45;5.25;;;16.30;99.90;;;;;;5094464;28;20126;-69
2022/05/22 07:51:08;;;;;;;11.25;4.88;;;16.30;99.90;;;;;;5110512;28;20039;-69
2022/05/22 07:53:34;;;;;;;13.20;5.27;;;16.30;99.90;;;;;;5104101;28;20040;-69
2022/05/22 07:56:01;;;;;;;13.07;5.03;;;16.40;99.90;;;;;;5103757;28;20435;-69
2022/05/22 07:58:28;;;;;;;14.55;5.25;;;16.50;99.90;;;;;;5091476;28;20048;-69
2022/05/22 08:00:56;;;;;;;14.60;5.25;;;16.50;99.90;;;;;;5076857;28;20040;-69
2022/05/22 08:03:21;;;;;;;;;;;16.50;99.90;;;;;;5102679;28;20039;-69
2022/05/22 08:05:47;;;;;;;11.57;3.83;;;16.60;99.90;;;;;;5111011;28;19930;-69
2022/05/22 08:08:13;;;;;;;14.50;4.25;;;16.60;99.90;;;;;;5104021;28;20046;-69
2022/05/22 08:10:41;;;;;;;14.48;4.18;;;16.60;99.90;;;;;;5110046;28;20122;-69
2022/05/22 08:13:11;;;;;;;10.60;3.65;;;16.70;99.90;;;;;;5090385;28;20039;-69
2022/05/22 08:15:39;;;;;;;12.18;4.38;;;16.70;99.90;;;;;;5096506;28;20056;-69
2022/05/22 08:18:06;;;;;;;10.65;3.83;;;16.60;99.90;;;;;;5095311;28;20474;-69
2022/05/22 08:20:36;;;;;;;12.75;3.80;;;16.60;99.90;;;;;;5089443;28;20059;-70
2022/05/22 08:23:05;;;;;;;10.88;3.63;;;16.70;99.90;;;;;;5090439;28;20093;-69
2022/05/22 08:25:32;;;;;;;11.48;3.80;;;16.80;99.90;;;;;;5094566;28;20101;-69
2022/05/22 08:27:58;;;;;;;9.23;3.73;;;16.90;99.90;;;;;;5110768;28;20937;-69
2022/05/22 08:30:27;;;;;;;13.70;3.85;;;17.00;99.90;;;;;;5101681;28;20035;-71
2022/05/22 08:32:53;;;;;;;12.18;3.90;;;17.10;99.90;;;;;;5091750;27;20036;-69
2022/05/22 08:35:25;;;;;;;8.73;4.03;;;17.20;99.90;;;;;;5095614;28;20047;-69
2022/05/22 08:37:51;;;;;;;11.60;3.85;;;17.30;99.90;;;;;;5111420;28;20085;-70
2022/05/22 08:40:19;;;;;;;12.57;4.10;;;17.30;99.90;;;;;;5096411;28;20054;-69
2022/05/22 08:42:55;;;;;;;12.10;4.20;;;17.40;99.90;;;;;;5108051;28;20040;-69
2022/05/22 08:45:28;;;;;;;9.90;4.00;;;17.60;99.90;;;;;;5108565;27;20043;-69
2022/05/22 08:48:23;;;;;;;12.63;4.25;;;17.80;99.90;;;;;;5107520;28;20036;-69
2022/05/22 08:50:49;;;;;;;10.90;3.58;;;17.90;99.90;;;;;;5091253;28;20118;-69
2022/05/22 08:53:25;;;;;;;12.07;3.50;;;18.00;99.90;;;;;;5108856;28;20044;-69
2022/05/22 08:58:56;;;;;;;11.07;3.78;;;18.30;99.90;;;;;;5089102;28;20788;-69
2022/05/22 09:01:35;;;;;;;12.10;3.53;;;18.40;99.90;;;;;;5102919;28;20073;-69
2022/05/22 09:04:19;;;;;;;16.27;4.32;;;18.30;99.90;;;;;;5108324;28;20509;-69
2022/05/22 09:06:52;;;;;;;11.30;3.22;;;18.20;99.90;;;;;;5093193;28;20044;-68
2022/05/22 09:09:18;;;;;;;9.98;2.97;;;18.20;99.90;;;;;;5098122;28;20063;-70
2022/05/22 09:12:08;;;;;;;13.30;3.30;;;18.30;99.90;;;;;;5103987;28;20138;-70
2022/05/22 09:14:42;;;;;;;12.18;3.60;;;18.40;99.90;;;;;;5109853;28;20039;-69
2022/05/22 09:17:23;;;;;;;12.73;3.45;;;18.40;99.90;;;;;;5092210;28;20686;-68
2022/05/22 09:20:19;;;;;;;8.57;3.25;;;18.50;99.90;;;;;;5090947;28;20541;-69
2022/05/22 09:23:02;;;;;;;9.30;3.85;;;18.70;99.90;;;;;;5088427;28;20479;-69
2022/05/22 09:26:05;;;;;;;14.32;4.38;;;18.80;99.90;;;;;;5102923;28;20051;-69
2022/05/22 09:28:56;;;;;;;10.93;3.95;;;18.80;99.90;;;;;;5102917;28;20043;-69
2022/05/22 09:31:31;;;;;;;8.95;3.58;;;18.80;99.90;;;;;;5109546;28;20070;-68
2022/05/22 09:34:05;;;;;;;10.63;3.75;;;18.90;99.90;;;;;;5110966;28;20051;-69
2022/05/22 09:36:37;;;;;;;11.50;3.92;;;19.00;99.90;;;;;;5101355;28;20134;-69
2022/05/22 09:39:14;;;;;;;10.15;3.60;;;19.20;99.90;;;;;;5101248;28;20051;-69
2022/05/22 09:41:46;;;;;;;12.05;4.20;;;19.20;99.90;;;;;;5106297;28;20045;-69
2022/05/22 09:44:16;;;;;;;11.63;3.97;;;19.40;99.90;;;;;;5106997;28;20511;-69
2022/05/22 09:46:45;;;;;;;10.68;3.67;;;19.60;99.90;;;;;;5092060;28;20050;-69
2022/05/22 09:49:38;;;;;;;12.43;3.63;;;19.50;99.90;;;;;;5068243;28;20563;-69
2022/05/22 09:52:20;;;;;;;13.38;3.95;;;19.50;99.90;;;;;;5069284;28;20052;-69
2022/05/22 09:55:08;;;;;;;9.18;3.03;;;19.30;99.90;;;;;;5081585;28;20087;-69
2022/05/22 09:57:36;;;;;;;10.35;2.95;;;19.10;99.90;;;;;;5075980;28;20044;-69
2022/05/22 10:00:15;;;;;;;10.55;2.90;;;18.80;99.90;;;;;;5093937;28;20051;-69
2022/05/22 10:02:56;;;;;;;8.63;2.70;;;18.70;99.90;;;;;;5102728;28;20044;-69
2022/05/22 10:06:09;;;;;;;7.13;2.38;;;18.60;99.90;;;;;;5105278;28;20518;-69
2022/05/22 10:08:35;;;;;;;8.77;2.60;;;18.60;99.90;;;;;;5020831;28;20049;-68
2022/05/22 10:11:22;;;;;;;7.82;2.65;;;18.70;99.90;;;;;;5087135;28;20059;-68
2022/05/22 10:14:10;;;;;;;8.00;2.42;;;18.90;99.90;;;;;;5084568;28;20055;-68
2022/05/22 10:17:30;;;;;;;8.30;2.70;;;19.10;99.90;;;;;;5090600;28;20044;-70
2022/05/22 10:20:07;;;;;;;7.57;2.40;;;19.20;99.90;;;;;;4990554;28;20041;-69
2022/05/22 10:22:48;;;;;;;6.43;2.17;;;19.50;99.90;;;;;;5082447;28;20754;-70
2022/05/22 10:25:47;;;;;;;9.13;2.22;;;19.80;99.90;;;;;;5089302;28;20534;-69
2022/05/22 10:28:18;;;;;;;9.40;2.63;;;19.70;99.90;;;;;;5090305;28;20052;-70
2022/05/22 10:31:05;;;;;;;13.25;3.28;;;19.50;99.50;;;;;;5092006;28;20487;-70
2022/05/22 10:34:11;;;;;;;8.45;2.47;;;19.40;99.70;;;;;;5106710;28;20043;-70
2022/05/22 10:36:41;;;;;;;9.43;2.60;;;19.40;99.90;;;;;;5051198;28;20466;-69
2022/05/22 10:39:08;;;;;;;11.07;2.75;;;19.40;99.90;;;;;;5104598;28;20454;-69
2022/05/22 10:44:28;;;;;;;7.40;2.10;;;19.70;99.90;;;;;;5098638;28;19985;-69
2022/05/22 10:46:59;;;;;;;11.63;2.95;;;19.80;99.90;;;;;;5100300;28;20048;-71
2022/05/22 10:49:42;;;;;;;10.95;3.05;;;20.00;99.90;;;;;;5101843;28;20063;-71
2022/05/22 10:52:10;;;;;;;8.98;2.53;;;20.10;99.90;;;;;;5082564;28;20618;-71
2022/05/22 10:54:47;;;;;;;7.85;2.22;;;20.20;99.90;;;;;;5070279;28;20484;-70
2022/05/22 10:57:18;;;;;;;;;;;20.40;99.90;;;;;;5090001;28;20047;-71
2022/05/22 10:59:44;;;;;;;8.25;2.08;;;20.50;99.90;;;;;;5109256;28;19986;-70
2022/05/22 11:02:19;;;;;;;6.80;1.98;;;20.70;99.90;;;;;;5103807;28;20046;-70
2022/05/22 11:04:46;;;;;;;8.98;2.63;;;20.90;98.90;;;;;;5103545;28;20044;-71
2022/05/22 11:07:13;;;;;;;6.35;2.22;;;21.10;99.70;;;;;;5098394;28;20088;-68
2022/05/22 11:09:49;;;;;;;7.53;2.58;;;21.20;99.90;;;;;;5087013;28;20044;-69
2022/05/22 11:12:26;;;;;;;7.85;1.95;;;21.30;98.10;;;;;;5093291;28;20043;-72
2022/05/22 11:15:23;;;;;;;9.20;2.10;;;21.50;98.70;;;;;;5106799;28;20043;-69
2022/05/22 11:18:09;;;;;;;8.93;2.40;;;21.60;94.60;;;;;;5103914;28;20141;-69
2022/05/22 11:20:59;;;;;;;8.60;2.17;;;21.50;92.90;;;;;;5098505;28;20063;-69
2022/05/22 11:23:57;;;;;;;8.98;2.30;;;21.10;89.50;;;;;;5049260;28;20469;-69
2022/05/22 11:26:31;;;;;;;6.53;1.80;;;21.00;92.90;;;;;;5090373;28;20493;-69
2022/05/22 11:29:13;;;;;;;8.20;2.40;;;21.00;90.90;;;;;;5088912;28;20056;-69
2022/05/22 11:31:58;;;;;;;7.45;2.30;;;20.90;93.30;;;;;;5090878;28;20047;-71
2022/05/22 11:35:02;;;;;;;7.38;2.55;;;20.80;92.50;;;;;;5072663;28;20048;-70
2022/05/22 11:37:59;;;;;;;13.23;2.38;;;20.60;91.90;;;;;;5109572;28;20409;-70
2022/05/22 11:40:53;;;;;;;8.50;2.22;;;20.50;93.80;;;;;;5090873;28;20052;-70
2022/05/22 11:43:47;;;;;;;6.82;1.92;;;20.40;93.50;;;;;;5089545;28;20052;-70
2022/05/22 11:46:32;;;;;;;8.85;2.10;;;20.30;94.50;;;;;;5089842;28;20044;-70
2022/05/22 11:49:19;;;;;;;12.98;2.30;;;20.20;94.80;;;;;;5105151;28;20056;-70
2022/05/22 11:51:58;;;;;;;9.70;2.58;;;20.20;95.70;;;;;;5110570;28;20051;-70
2022/05/22 11:54:56;;;;;;;6.78;2.47;;;20.10;97.70;;;;;;5098148;28;20087;-71
2022/05/22 11:57:37;;;;;;;6.75;2.30;;;20.20;98.20;;;;;;5090432;28;20040;-68
2022/05/22 12:00:30;;;;;;;9.13;2.65;;;20.20;97.70;;;;;;5101508;28;20138;-69
2022/05/22 12:03:10;;;;;;;10.38;2.70;;;20.20;98.10;;;;;;5097656;28;20480;-70
2022/05/22 12:05:48;;;;;;;6.18;2.30;;;20.00;98.10;;;;;;5108548;28;20047;-69
2022/05/22 12:08:47;;;;;;;7.57;2.40;;;19.90;98.20;;;;;;5093244;28;20044;-72
2022/05/22 12:11:49;;;;;;;6.47;2.65;;;19.80;99.30;;;;;;5089155;28;20112;-69
2022/05/22 12:14:17;;;;;;;7.93;2.78;;;19.80;99.90;;;;;;5088340;28;20040;-69
2022/05/22 12:16:57;;;;;;;9.25;2.00;;;19.80;99.30;;;;;;5093465;28;20382;-68
2022/05/22 12:20:08;;;;;;;7.07;2.55;;;19.90;99.50;;;;;;5090841;28;20052;-69
2022/05/22 12:25:35;;;;;;;9.38;2.92;;;20.30;98.40;;;;;;5097926;28;20091;-68
2022/05/22 12:28:03;;;;;;;7.22;2.33;;;20.60;95.60;;;;;;5090094;28;20043;-68
2022/05/22 12:30:37;;;;;;;8.88;2.15;;;20.70;97.20;;;;;;5090749;28;20047;-69
2022/05/22 12:33:10;;;;;;;7.50;1.92;;;21.00;97.90;;;;;;5104560;28;20042;-69
2022/05/22 12:35:38;;;;;;;7.05;2.17;;;21.20;96.40;;;;;;5091201;28;20028;-69
2022/05/22 12:38:07;;;;;;;8.18;2.60;;;21.40;96.40;;;;;;5107163;28;20040;-69
2022/05/22 12:41:03;;;;;;;9.02;2.78;;;21.60;95.90;;;;;;5108917;28;20069;-69
2022/05/22 12:43:30;;;;;;;;;;;21.80;92.20;;;;;;5111779;28;20138;-68
2022/05/22 12:46:01;;;;;;;5.05;1.85;;;22.00;96.10;;;;;;5105026;28;19944;-68
2022/05/22 12:48:32;;;;;;;7.10;2.10;;;22.10;95.40;;;;;;5088393;28;20036;-69
2022/05/22 12:51:08;;;;;;;8.98;2.00;;;22.20;87.00;;;;;;5108685;28;20081;-69
2022/05/22 12:53:35;;;;;;;6.85;2.10;;;22.30;92.70;;;;;;5096994;28;20039;-69
2022/05/22 12:56:19;;;;;;;;;;;22.40;89.00;;;;;;5095061;28;20062;-70
2022/05/22 12:59:03;;;;;;;6.25;2.13;;;22.40;90.80;;;;;;5093176;28;19919;-69
2022/05/22 13:01:32;;;;;;;7.90;2.20;;;22.40;89.00;;;;;;5109825;28;20391;-69
2022/05/22 13:04:01;;;;;;;5.07;1.83;;;22.40;88.00;;;;;;5099542;28;20051;-71
2022/05/22 13:06:55;;;;;;;6.82;1.90;;;22.40;75.60;;;;;;5094018;28;20530;-71
2022/05/22 13:09:54;;;;;;;6.00;2.33;;;22.40;83.30;;;;;;5075089;28;20059;-72
2022/05/22 13:12:24;;;;;;;8.98;2.72;;;22.50;82.80;;;;;;5061288;28;20100;-74
2022/05/22 13:15:25;;;;;;;5.53;1.98;;;22.40;72.30;;;;;;5091428;28;20089;-72